createdAt,value
2022-08-10T00:00:05.490Z,0
2022-08-10T00:00:39.857Z,0
2022-08-10T00:01:12.036Z,.32
2022-08-10T00:01:44.192Z,0
2022-08-10T00:02:13.326Z,0
2022-08-10T00:02:45.057Z,.32
2022-08-10T00:03:20.430Z,.32
2022-08-10T00:03:43.703Z,0
2022-08-10T00:04:06.126Z,0
2022-08-10T00:04:39.934Z,.64
2022-08-10T00:05:12.210Z,.32
2022-08-10T00:05:52.406Z,0
2022-08-10T00:06:13.473Z,0
2022-08-10T00:06:45.058Z,.32
2022-08-10T00:07:21.305Z,0
2022-08-10T00:07:42.501Z,0
2022-08-10T00:08:05.309Z,.32
2022-08-10T00:08:40.010Z,0
2022-08-10T00:09:11.839Z,0
2022-08-10T00:09:50.660Z,0
2022-08-10T00:10:16.086Z,0
2022-08-10T00:10:39.366Z,0
2022-08-10T00:11:01.892Z,0
2022-08-10T00:11:36.406Z,.32
2022-08-10T00:12:09.322Z,0
2022-08-10T00:12:54.070Z,0
2022-08-10T00:13:12.223Z,0
2022-08-10T00:13:47.404Z,.32
2022-08-10T00:14:16.450Z,1.12
2022-08-10T00:14:39.096Z,.64
2022-08-10T00:15:01.842Z,0
2022-08-10T00:15:52.845Z,0
2022-08-10T00:16:09.867Z,0
2022-08-10T00:16:40.069Z,0
2022-08-10T00:17:12.036Z,.64
2022-08-10T00:17:43.802Z,0
2022-08-10T00:18:31.523Z,.32
2022-08-10T00:18:39.630Z,0
2022-08-10T00:19:01.913Z,.32
2022-08-10T00:20:03.986Z,0
2022-08-10T00:20:27.342Z,1.12
2022-08-10T00:20:47.553Z,.32
2022-08-10T00:21:10.377Z,0
2022-08-10T00:21:45.413Z,0
2022-08-10T00:22:17.084Z,0
2022-08-10T00:22:57.563Z,0
2022-08-10T00:23:03.096Z,0
2022-08-10T00:23:36.626Z,1.44
2022-08-10T00:24:08.079Z,.32
2022-08-10T00:24:43.125Z,0
2022-08-10T00:25:14.406Z,0
2022-08-10T00:25:38.172Z,0
2022-08-10T00:26:13.653Z,0
2022-08-10T00:27:52.231Z,0
2022-08-10T00:28:08.171Z,0
2022-08-10T00:28:39.891Z,0
2022-08-10T00:29:12.032Z,0
2022-08-10T00:29:45.400Z,0
2022-08-10T00:30:17.451Z,0
2022-08-10T00:30:46.154Z,0
2022-08-10T00:31:19.895Z,0
2022-08-10T00:31:57.937Z,0
2022-08-10T00:32:12.072Z,0
2022-08-10T00:32:39.873Z,0
2022-08-10T00:33:12.813Z,0
2022-08-10T00:33:44.795Z,0
2022-08-10T00:34:18.527Z,0
2022-08-10T00:34:48.282Z,.32
2022-08-10T00:35:19.970Z,0
2022-08-10T00:35:43.073Z,1.12
2022-08-10T00:36:05.211Z,0
2022-08-10T00:36:41.031Z,.32
2022-08-10T00:37:12.100Z,0
2022-08-10T00:37:44.229Z,0
2022-08-10T00:38:13.443Z,1.12
2022-08-10T00:38:49.014Z,0
2022-08-10T00:39:19.943Z,0
2022-08-10T00:39:42.699Z,0
2022-08-10T00:40:05.107Z,0
2022-08-10T00:40:39.941Z,0
2022-08-10T00:41:12.773Z,0
2022-08-10T00:41:43.869Z,0
2022-08-10T00:42:14.004Z,.32
2022-08-10T00:42:49.557Z,.32
2022-08-10T00:43:23.544Z,0
2022-08-10T00:43:43.213Z,0
2022-08-10T00:44:05.532Z,0
2022-08-10T00:44:40.820Z,0
2022-08-10T00:45:12.768Z,0
2022-08-10T00:45:45.772Z,0
2022-08-10T00:46:16.115Z,0
2022-08-10T00:46:46.057Z,0
2022-08-10T00:47:36.234Z,0
2022-08-10T00:47:42.811Z,0
2022-08-10T00:48:05.893Z,0
2022-08-10T00:48:40.116Z,.32
2022-08-10T00:49:16.798Z,0
2022-08-10T00:49:45.589Z,0
2022-08-10T00:50:13.974Z,0
2022-08-10T00:50:45.036Z,0
2022-08-10T00:51:20.160Z,0
2022-08-10T00:51:48.713Z,0
2022-08-10T00:52:04.998Z,0
2022-08-10T00:52:40.306Z,0
2022-08-10T00:53:13.694Z,0
2022-08-10T00:53:44.924Z,0
2022-08-10T00:54:24.231Z,0
2022-08-10T00:54:38.860Z,0
2022-08-10T00:55:02.024Z,0
2022-08-10T00:57:12.513Z,0
2022-08-10T00:57:31.482Z,0
2022-08-10T00:57:55.503Z,0
2022-08-10T00:58:14.249Z,0
2022-08-10T00:58:50.267Z,0
2022-08-10T00:59:20.838Z,0
2022-08-10T00:59:57.739Z,0
2022-08-10T01:00:06.181Z,0
2022-08-10T01:00:40.552Z,0
2022-08-10T01:02:07.834Z,0
2022-08-10T01:02:14.627Z,0
2022-08-10T01:02:45.225Z,0
2022-08-10T01:04:39.534Z,0
2022-08-10T01:05:12.166Z,0
2022-08-10T01:05:51.635Z,0
2022-08-10T01:06:15.209Z,0
2022-08-10T01:06:45.190Z,0
2022-08-10T01:07:19.903Z,0
2022-08-10T01:07:42.521Z,0
2022-08-10T01:08:04.938Z,0
2022-08-10T01:08:41.374Z,0
2022-08-10T01:09:15.367Z,0
2022-08-10T01:09:44.145Z,0
2022-08-10T01:10:15.336Z,0
2022-08-10T01:10:45.268Z,0
2022-08-10T01:12:37.089Z,0
2022-08-10T01:12:47.154Z,0
2022-08-10T01:13:10.069Z,0
2022-08-10T01:13:43.986Z,0
2022-08-10T01:14:13.608Z,0
2022-08-10T01:14:45.226Z,0
2022-08-10T01:15:20.939Z,0
2022-08-10T01:15:43.079Z,0
2022-08-10T01:16:05.642Z,0
2022-08-10T01:16:43.426Z,0
2022-08-10T01:17:12.278Z,0
2022-08-10T01:17:50.916Z,0
2022-08-10T01:18:19.773Z,0
2022-08-10T01:18:42.762Z,0
2022-08-10T01:19:37.642Z,0
2022-08-10T01:20:11.981Z,0
2022-08-10T01:20:41.742Z,0
2022-08-10T01:21:12.608Z,0
2022-08-10T01:21:53.927Z,0
2022-08-10T01:22:16.485Z,0
2022-08-10T01:22:48.562Z,0
2022-08-10T01:23:21.173Z,0
2022-08-10T01:23:43.761Z,0
2022-08-10T01:24:05.681Z,0
2022-08-10T01:24:40.043Z,0
2022-08-10T01:25:17.412Z,0
2022-08-10T01:26:12.046Z,0
2022-08-10T01:26:31.477Z,0
2022-08-10T01:26:45.795Z,0
2022-08-10T01:27:19.786Z,0
2022-08-10T01:27:42.458Z,0
2022-08-10T01:28:07.338Z,0
2022-08-10T01:28:40.142Z,0
2022-08-10T01:29:11.845Z,0
2022-08-10T01:29:44.577Z,0
2022-08-10T01:30:17.557Z,0
2022-08-10T01:30:39.304Z,0
2022-08-10T01:31:01.777Z,0
2022-08-10T01:31:36.978Z,0
2022-08-10T01:32:08.892Z,0
2022-08-10T01:32:40.132Z,0
2022-08-10T01:33:12.024Z,0
2022-08-10T01:33:58.177Z,0
2022-08-10T01:34:18.139Z,0
2022-08-10T01:34:39.739Z,0
2022-08-10T01:35:03.567Z,0
2022-08-10T01:35:35.884Z,0
2022-08-10T01:36:08.434Z,0
2022-08-10T01:36:40.449Z,0
2022-08-10T01:37:11.888Z,0
2022-08-10T01:37:52.265Z,0
2022-08-10T01:38:18.413Z,0
2022-08-10T01:38:40.380Z,0
2022-08-10T01:39:03.462Z,0
2022-08-10T01:39:40.145Z,0
2022-08-10T01:40:02.367Z,0
2022-08-10T01:40:39.918Z,0
2022-08-10T01:41:11.691Z,0
2022-08-10T01:41:46.031Z,0
2022-08-10T01:42:15.844Z,0
2022-08-10T01:42:45.009Z,0
2022-08-10T01:43:19.716Z,0
2022-08-10T01:43:42.465Z,0
2022-08-10T01:44:04.786Z,0
2022-08-10T01:44:40.168Z,0
2022-08-10T01:45:11.886Z,0
2022-08-10T01:45:45.454Z,0
2022-08-10T01:46:15.870Z,0
2022-08-10T01:46:48.646Z,0
2022-08-10T01:47:22.481Z,0
2022-08-10T01:47:42.817Z,0
2022-08-10T01:48:05.336Z,0
2022-08-10T01:48:40.347Z,0
2022-08-10T01:49:11.838Z,0
2022-08-10T01:49:43.806Z,0
2022-08-10T01:50:15.853Z,0
2022-08-10T01:50:59.423Z,0
2022-08-10T01:51:01.834Z,0
2022-08-10T01:51:38.588Z,0
2022-08-10T01:52:10.311Z,0
2022-08-10T01:52:39.715Z,0
2022-08-10T01:53:11.828Z,0
2022-08-10T01:53:45.289Z,0
2022-08-10T01:54:13.504Z,0
2022-08-10T01:54:45.055Z,0
2022-08-10T01:55:20.303Z,0
2022-08-10T01:55:42.730Z,0
2022-08-10T01:56:05.009Z,0
2022-08-10T01:56:39.982Z,0
2022-08-10T01:57:11.821Z,0
2022-08-10T01:57:44.341Z,0
2022-08-10T01:58:15.725Z,0
2022-08-10T01:58:47.803Z,0
2022-08-10T01:59:22.509Z,0
2022-08-10T01:59:42.518Z,0
2022-08-10T02:00:05.986Z,0
2022-08-10T02:00:39.975Z,0
2022-08-10T02:01:16.720Z,0
2022-08-10T02:01:43.948Z,0
2022-08-10T02:02:13.440Z,0
2022-08-10T02:02:48.584Z,0
2022-08-10T02:03:21.325Z,0
2022-08-10T02:04:03.107Z,0
2022-08-10T02:04:24.024Z,0
2022-08-10T02:04:47.778Z,0
2022-08-10T02:05:11.605Z,0
2022-08-10T02:05:43.828Z,0
2022-08-10T02:06:15.820Z,0
2022-08-10T02:06:47.753Z,0
2022-08-10T02:07:21.740Z,0
2022-08-10T02:07:42.909Z,0
2022-08-10T02:08:05.347Z,0
2022-08-10T02:08:39.684Z,0
2022-08-10T02:09:11.774Z,0
2022-08-10T02:09:43.888Z,0
2022-08-10T02:10:16.254Z,0
2022-08-10T02:10:49.277Z,0
2022-08-10T02:11:19.752Z,0
2022-08-10T02:11:55.711Z,0
2022-08-10T02:12:23.825Z,0
2022-08-10T02:12:46.808Z,0
2022-08-10T02:13:09.099Z,0
2022-08-10T02:13:44.087Z,0
2022-08-10T02:14:15.682Z,0
2022-08-10T02:14:49.591Z,0
2022-08-10T02:15:19.801Z,0
2022-08-10T02:16:02.001Z,0
2022-08-10T02:16:04.753Z,0
2022-08-10T02:16:39.880Z,0
2022-08-10T02:17:58.183Z,0
2022-08-10T02:18:16.963Z,0
2022-08-10T02:18:48.421Z,0
2022-08-10T02:19:36.263Z,0
2022-08-10T02:20:08.264Z,0
2022-08-10T02:20:41.693Z,0
2022-08-10T02:21:12.299Z,0
2022-08-10T02:22:36.359Z,0
2022-08-10T02:22:52.390Z,0
2022-08-10T02:23:19.879Z,0
2022-08-10T02:23:42.582Z,0
2022-08-10T02:24:05.003Z,0
2022-08-10T02:24:40.099Z,0
2022-08-10T02:25:42.486Z,0
2022-08-10T02:25:50.025Z,0
2022-08-10T02:26:12.312Z,0
2022-08-10T02:26:47.793Z,0
2022-08-10T02:27:19.789Z,0
2022-08-10T02:27:42.462Z,0
2022-08-10T02:28:04.889Z,0
2022-08-10T02:28:45.356Z,0
2022-08-10T02:29:11.808Z,0
2022-08-10T02:29:44.225Z,0
2022-08-10T02:30:15.681Z,0
2022-08-10T02:30:48.290Z,0
2022-08-10T02:31:23.040Z,0
2022-08-10T02:31:42.358Z,0
2022-08-10T02:32:10.147Z,0
2022-08-10T02:32:39.883Z,0
2022-08-10T02:33:11.784Z,0
2022-08-10T02:33:56.392Z,0
2022-08-10T02:34:13.373Z,0
2022-08-10T02:34:47.703Z,0
2022-08-10T02:35:22.383Z,0
2022-08-10T02:35:54.060Z,0
2022-08-10T02:36:25.332Z,0
2022-08-10T02:36:46.535Z,0
2022-08-10T02:37:10.786Z,0
2022-08-10T02:37:43.840Z,0
2022-08-10T02:38:10.156Z,0
2022-08-10T02:38:58.743Z,0
2022-08-10T02:39:19.813Z,0
2022-08-10T02:39:42.673Z,0
2022-08-10T02:40:04.973Z,0
2022-08-10T02:45:12.480Z,0
2022-08-10T02:45:44.205Z,0
2022-08-10T02:46:20.812Z,.64
2022-08-10T02:46:45.374Z,.32
2022-08-10T02:47:19.623Z,0
2022-08-10T02:47:50.841Z,0
2022-08-10T02:48:05.027Z,0
2022-08-10T02:48:39.783Z,0
2022-08-10T02:49:11.762Z,0
2022-08-10T02:49:43.759Z,0
2022-08-10T02:50:16.258Z,0
2022-08-10T02:50:47.752Z,0
2022-08-10T02:51:19.881Z,0
2022-08-10T02:52:23.961Z,0
2022-08-10T02:52:46.607Z,0
2022-08-10T02:53:09.177Z,0
2022-08-10T02:54:00.440Z,0
2022-08-10T02:54:31.739Z,0
2022-08-10T02:54:54.452Z,0
2022-08-10T02:55:17.844Z,0
2022-08-10T02:55:46.559Z,0
2022-08-10T02:56:02.552Z,0
2022-08-10T02:56:40.401Z,0
2022-08-10T02:57:11.738Z,0
2022-08-10T02:58:13.900Z,0
2022-08-10T02:58:31.974Z,0
2022-08-10T02:58:55.511Z,0
2022-08-10T02:59:18.140Z,0
2022-08-10T02:59:40.610Z,0
2022-08-10T03:00:03.426Z,0
2022-08-10T03:00:40.093Z,0
2022-08-10T03:01:11.761Z,0
2022-08-10T03:01:45.263Z,0
2022-08-10T03:02:13.359Z,0
2022-08-10T03:02:47.874Z,0
2022-08-10T03:03:19.834Z,0
2022-08-10T03:03:45.933Z,0
2022-08-10T03:04:57.061Z,0
2022-08-10T03:05:12.371Z,0
2022-08-10T03:05:44.969Z,0
2022-08-10T03:06:15.612Z,0
2022-08-10T03:06:47.927Z,0
2022-08-10T03:07:19.739Z,0
2022-08-10T03:07:51.614Z,0
2022-08-10T03:08:25.237Z,0
2022-08-10T03:08:46.655Z,0
2022-08-10T03:09:11.941Z,0
2022-08-10T03:09:43.709Z,0
2022-08-10T03:10:14.695Z,0
2022-08-10T03:10:48.315Z,0
2022-08-10T03:12:37.254Z,0
2022-08-10T03:12:39.730Z,0
2022-08-10T03:13:11.748Z,0
2022-08-10T03:13:43.783Z,0
2022-08-10T03:14:15.726Z,0
2022-08-10T03:14:49.118Z,0
2022-08-10T03:15:20.132Z,0
2022-08-10T03:15:42.468Z,0
2022-08-10T03:16:04.792Z,0
2022-08-10T03:16:39.980Z,0
2022-08-10T03:17:11.699Z,0
2022-08-10T03:17:57.228Z,0
2022-08-10T03:18:19.214Z,0
2022-08-10T03:18:47.623Z,0
2022-08-10T03:20:04.623Z,0
2022-08-10T03:20:40.546Z,0
2022-08-10T03:21:12.317Z,0
2022-08-10T03:21:44.110Z,0
2022-08-10T03:22:14.864Z,0
2022-08-10T03:22:47.728Z,0
2022-08-10T03:23:19.886Z,0
2022-08-10T03:23:42.545Z,0
2022-08-10T03:24:26.173Z,0
2022-08-10T03:24:44.645Z,0
2022-08-10T03:25:06.530Z,0
2022-08-10T03:25:53.778Z,0
2022-08-10T03:26:20.310Z,0
2022-08-10T03:26:47.694Z,0
2022-08-10T03:27:19.756Z,0
2022-08-10T03:27:42.532Z,0
2022-08-10T03:28:04.828Z,0
2022-08-10T03:28:39.803Z,0
2022-08-10T03:29:11.728Z,0
2022-08-10T03:30:28.650Z,0
2022-08-10T03:30:53.409Z,0
2022-08-10T03:31:19.799Z,0
2022-08-10T03:31:42.538Z,0
2022-08-10T03:32:04.970Z,0
2022-08-10T03:32:39.719Z,0
2022-08-10T03:33:11.639Z,0
2022-08-10T03:33:45.177Z,0
2022-08-10T03:34:22.290Z,0
2022-08-10T03:34:48.040Z,0
2022-08-10T03:35:19.638Z,0
2022-08-10T03:35:42.400Z,0
2022-08-10T03:36:47.146Z,0
2022-08-10T03:37:10.712Z,0
2022-08-10T03:37:44.838Z,0
2022-08-10T03:38:16.162Z,0
2022-08-10T03:38:47.785Z,0
2022-08-10T03:39:19.796Z,0
2022-08-10T03:39:42.492Z,0
2022-08-10T03:40:04.707Z,0
2022-08-10T03:40:46.118Z,0
2022-08-10T03:41:11.730Z,0
2022-08-10T03:41:47.725Z,0
2022-08-10T03:42:15.829Z,0
2022-08-10T03:42:53.632Z,0
2022-08-10T03:43:20.476Z,0
2022-08-10T03:43:43.106Z,0
2022-08-10T03:44:05.762Z,0
2022-08-10T03:44:41.216Z,0
2022-08-10T03:45:11.880Z,0
2022-08-10T03:45:54.683Z,0
2022-08-10T03:46:23.029Z,0
2022-08-10T03:46:49.607Z,0
2022-08-10T03:47:19.684Z,0
2022-08-10T03:47:42.168Z,0
2022-08-10T03:48:05.944Z,0
2022-08-10T03:48:48.929Z,0
2022-08-10T03:49:11.608Z,0
2022-08-10T03:49:44.107Z,0
2022-08-10T03:50:46.084Z,0
2022-08-10T03:50:54.449Z,0
2022-08-10T03:51:17.521Z,0
2022-08-10T03:51:41.482Z,0
2022-08-10T03:52:06.010Z,0
2022-08-10T03:52:40.521Z,0
2022-08-10T03:53:25.156Z,0
2022-08-10T03:54:13.496Z,0
2022-08-10T03:54:47.774Z,0
2022-08-10T03:56:29.319Z,0
2022-08-10T03:56:39.916Z,0
2022-08-10T03:57:11.812Z,0
2022-08-10T03:57:49.746Z,0
2022-08-10T03:58:13.470Z,0
2022-08-10T03:58:47.600Z,0
2022-08-10T03:59:19.709Z,0
2022-08-10T03:59:42.596Z,0
2022-08-10T04:00:05.561Z,0
2022-08-10T04:00:39.653Z,0
2022-08-10T04:01:11.766Z,0
2022-08-10T04:02:44.143Z,0
2022-08-10T04:02:54.909Z,0
2022-08-10T04:03:17.578Z,0
2022-08-10T04:03:41.411Z,0
2022-08-10T04:04:13.722Z,0
2022-08-10T04:04:40.646Z,0
2022-08-10T04:05:11.632Z,0
2022-08-10T04:05:43.638Z,0
2022-08-10T04:06:19.401Z,0
2022-08-10T04:06:51.312Z,0
2022-08-10T04:07:19.802Z,0
2022-08-10T04:07:43.150Z,0
2022-08-10T04:08:08.949Z,0
2022-08-10T04:08:39.778Z,0
2022-08-10T04:09:11.904Z,0
2022-08-10T04:09:54.691Z,0
2022-08-10T04:10:13.417Z,0
2022-08-10T04:10:47.727Z,0
2022-08-10T04:11:19.979Z,0
2022-08-10T04:11:44.949Z,0
2022-08-10T04:12:05.288Z,0
2022-08-10T04:12:44.557Z,0
2022-08-10T04:13:11.727Z,0
2022-08-10T04:13:45.345Z,0
2022-08-10T04:14:47.377Z,0
2022-08-10T04:14:56.397Z,0
2022-08-10T04:15:18.601Z,0
2022-08-10T04:15:42.588Z,0
2022-08-10T04:16:07.482Z,0
2022-08-10T04:16:39.765Z,0
2022-08-10T04:17:14.039Z,0
2022-08-10T04:17:56.948Z,0
2022-08-10T04:18:13.470Z,0
2022-08-10T04:18:51.137Z,0
2022-08-10T04:19:19.702Z,0
2022-08-10T04:19:47.361Z,0
2022-08-10T04:20:05.740Z,0
2022-08-10T04:20:39.789Z,0
2022-08-10T04:21:11.636Z,0
2022-08-10T04:21:44.141Z,0
2022-08-10T04:22:16.977Z,0
2022-08-10T04:22:47.781Z,0
2022-08-10T04:23:19.608Z,0
2022-08-10T04:23:42.485Z,0
2022-08-10T04:24:04.698Z,0
2022-08-10T04:24:41.240Z,0
2022-08-10T04:25:20.221Z,0
2022-08-10T04:25:39.923Z,0
2022-08-10T04:26:14.169Z,0
2022-08-10T04:26:53.671Z,0
2022-08-10T04:27:19.680Z,0
2022-08-10T04:27:42.291Z,0
2022-08-10T04:28:05.359Z,0
2022-08-10T04:28:39.990Z,0
2022-08-10T04:29:11.826Z,0
2022-08-10T04:29:44.062Z,0
2022-08-10T04:30:13.819Z,0
2022-08-10T04:30:48.902Z,0
2022-08-10T04:31:21.056Z,0
2022-08-10T04:31:43.309Z,0
2022-08-10T04:32:05.623Z,0
2022-08-10T04:32:41.056Z,0
2022-08-10T04:33:11.640Z,0
2022-08-10T04:33:43.899Z,0
2022-08-10T04:34:13.494Z,0
2022-08-10T04:34:47.776Z,0
2022-08-10T04:35:19.856Z,0
2022-08-10T04:35:42.430Z,0
2022-08-10T04:36:05.208Z,0
2022-08-10T04:36:41.227Z,0
2022-08-10T04:37:12.387Z,0
2022-08-10T04:37:47.244Z,0
2022-08-10T04:38:16.785Z,0
2022-08-10T04:38:47.945Z,0
2022-08-10T04:39:19.827Z,0
2022-08-10T04:39:42.699Z,0
2022-08-10T04:40:05.121Z,0
2022-08-10T04:40:41.569Z,0
2022-08-10T04:41:12.220Z,0
2022-08-10T04:41:47.434Z,0
2022-08-10T04:42:15.061Z,0
2022-08-10T04:42:53.154Z,0
2022-08-10T04:43:20.033Z,0
2022-08-10T04:43:42.683Z,0
2022-08-10T04:44:09.318Z,0
2022-08-10T04:44:43.214Z,0
2022-08-10T04:45:12.039Z,0
2022-08-10T04:45:48.328Z,0
2022-08-10T04:46:42.906Z,0
2022-08-10T04:47:03.691Z,0
2022-08-10T04:47:57.780Z,0
2022-08-10T04:48:07.958Z,0
2022-08-10T04:49:01.677Z,0
2022-08-10T04:49:32.429Z,0
2022-08-10T04:49:59.994Z,0
2022-08-10T04:50:31.716Z,0
2022-08-10T04:50:54.798Z,0
2022-08-10T04:51:19.031Z,0
2022-08-10T04:51:41.698Z,0
2022-08-10T04:52:05.217Z,0
2022-08-10T04:52:42.814Z,0
2022-08-10T04:53:12.158Z,0
2022-08-10T04:54:05.362Z,0
2022-08-10T04:54:15.916Z,0
2022-08-10T04:54:47.571Z,0
2022-08-10T04:55:19.561Z,0
2022-08-10T04:55:48.100Z,0
2022-08-10T04:56:05.438Z,0
2022-08-10T04:56:41.592Z,0
2022-08-10T04:57:13.511Z,0
2022-08-10T04:57:43.941Z,0
2022-08-10T04:58:13.657Z,0
2022-08-10T04:58:47.715Z,0
2022-08-10T04:59:19.668Z,0
2022-08-10T04:59:43.537Z,0
2022-08-10T05:00:07.503Z,0
2022-08-10T05:00:40.226Z,0
2022-08-10T05:01:11.939Z,0
2022-08-10T05:02:28.469Z,0
2022-08-10T05:02:32.385Z,0
2022-08-10T05:02:54.394Z,0
2022-08-10T05:03:17.647Z,0
2022-08-10T05:04:35.660Z,0
2022-08-10T05:04:41.508Z,0
2022-08-10T05:05:13.180Z,0
2022-08-10T05:05:47.158Z,0
2022-08-10T05:06:09.929Z,0
2022-08-10T05:06:48.027Z,0
2022-08-10T05:07:19.696Z,0
2022-08-10T05:07:53.667Z,0
2022-08-10T05:08:05.229Z,0
2022-08-10T05:08:39.678Z,0
2022-08-10T05:09:11.546Z,0
2022-08-10T05:10:01.384Z,0
2022-08-10T05:10:13.662Z,0
2022-08-10T05:10:47.662Z,0
2022-08-10T05:11:23.937Z,0
2022-08-10T05:11:42.428Z,0
2022-08-10T05:12:04.981Z,0
2022-08-10T05:12:39.950Z,0
2022-08-10T05:13:11.664Z,0
2022-08-10T05:13:45.462Z,0
2022-08-10T05:14:13.553Z,0
2022-08-10T05:14:50.152Z,0
2022-08-10T05:15:19.677Z,0
2022-08-10T05:15:45.293Z,0
2022-08-10T05:16:07.153Z,0
2022-08-10T05:16:39.689Z,0
2022-08-10T05:17:11.733Z,0
2022-08-10T05:18:08.346Z,0
2022-08-10T05:18:13.562Z,0
2022-08-10T05:18:49.234Z,0
2022-08-10T05:20:01.933Z,0
2022-08-10T05:20:08.697Z,0
2022-08-10T05:20:39.594Z,0
2022-08-10T05:21:11.628Z,0
2022-08-10T05:22:18.077Z,0
2022-08-10T05:22:53.216Z,0
2022-08-10T05:23:19.623Z,0
2022-08-10T05:23:42.359Z,0
2022-08-10T05:24:04.786Z,0
2022-08-10T05:24:39.721Z,0
2022-08-10T05:25:09.761Z,0
2022-08-10T05:25:44.518Z,0
2022-08-10T05:26:14.186Z,0
2022-08-10T05:26:57.215Z,0
2022-08-10T05:27:19.743Z,0
2022-08-10T05:27:43.063Z,0
2022-08-10T05:28:13.749Z,0
2022-08-10T05:28:35.308Z,0
2022-08-10T05:29:11.866Z,0
2022-08-10T05:29:44.147Z,0
2022-08-10T05:30:14.013Z,0
2022-08-10T05:30:47.560Z,0
2022-08-10T05:31:24.041Z,0
2022-08-10T05:31:43.435Z,0
2022-08-10T05:32:05.757Z,0
2022-08-10T05:32:57.137Z,0
2022-08-10T05:33:11.812Z,0
2022-08-10T05:33:43.539Z,0
2022-08-10T05:34:20.869Z,0
2022-08-10T05:34:47.518Z,0
2022-08-10T05:35:19.694Z,0
2022-08-10T05:35:57.619Z,0
2022-08-10T05:36:04.792Z,0
2022-08-10T05:36:39.571Z,0
2022-08-10T05:38:12.871Z,0
2022-08-10T05:38:32.026Z,0
2022-08-10T05:38:54.366Z,0
2022-08-10T05:39:17.084Z,0
2022-08-10T05:39:40.950Z,0
2022-08-10T05:40:01.964Z,0
2022-08-10T05:40:40.159Z,0
2022-08-10T05:41:11.605Z,0
2022-08-10T05:41:46.900Z,0
2022-08-10T05:42:13.704Z,0
2022-08-10T05:42:48.342Z,0
2022-08-10T05:43:19.773Z,0
2022-08-10T05:43:42.187Z,0
2022-08-10T05:44:04.560Z,0
2022-08-10T05:44:39.676Z,0
2022-08-10T05:45:11.746Z,0
2022-08-10T05:46:17.956Z,0
2022-08-10T05:46:32.254Z,0
2022-08-10T05:46:54.596Z,0
2022-08-10T05:47:17.535Z,0
2022-08-10T05:48:41.733Z,0
2022-08-10T05:49:12.036Z,0
2022-08-10T05:49:44.776Z,0
2022-08-10T05:50:14.064Z,0
2022-08-10T05:50:49.370Z,0
2022-08-10T05:51:20.681Z,0
2022-08-10T05:51:42.627Z,0
2022-08-10T05:52:04.728Z,0
2022-08-10T05:52:40.787Z,0
2022-08-10T05:53:58.921Z,0
2022-08-10T05:54:14.898Z,0
2022-08-10T05:54:49.744Z,.32
2022-08-10T05:55:19.624Z,0
2022-08-10T05:55:43.829Z,0
2022-08-10T05:56:04.695Z,0
2022-08-10T05:56:56.139Z,0
2022-08-10T05:57:11.798Z,0
2022-08-10T05:57:44.427Z,0
2022-08-10T05:58:15.660Z,0
2022-08-10T05:58:50.200Z,0
2022-08-10T06:00:30.956Z,0
2022-08-10T06:00:49.947Z,0
2022-08-10T06:01:11.598Z,0
2022-08-10T06:01:43.889Z,0
2022-08-10T06:02:41.508Z,0
2022-08-10T06:02:54.385Z,0
2022-08-10T06:03:17.098Z,0
2022-08-10T06:03:39.744Z,0
2022-08-10T06:04:02.510Z,0
2022-08-10T06:04:40.427Z,0
2022-08-10T06:05:12.158Z,0
2022-08-10T06:05:44.112Z,0
2022-08-10T06:06:13.680Z,0
2022-08-10T06:06:47.757Z,0
2022-08-10T06:07:21.921Z,1.12
2022-08-10T06:07:43.066Z,.32
2022-08-10T06:08:05.413Z,0
2022-08-10T06:08:39.723Z,0
2022-08-10T06:09:11.707Z,0
2022-08-10T06:09:58.728Z,.32
2022-08-10T06:10:13.551Z,0
2022-08-10T06:12:26.936Z,0
2022-08-10T06:12:53.522Z,0
2022-08-10T06:13:26.650Z,1.44
2022-08-10T06:14:13.239Z,.32
2022-08-10T06:14:37.410Z,0
2022-08-10T06:14:59.680Z,0
2022-08-10T06:15:21.676Z,0
2022-08-10T06:15:51.724Z,0
2022-08-10T06:16:04.337Z,0
2022-08-10T06:16:39.706Z,0
2022-08-10T06:17:12.215Z,0
2022-08-10T06:17:43.616Z,0
2022-08-10T06:18:13.720Z,0
2022-08-10T06:18:48.111Z,.32
2022-08-10T06:19:19.794Z,0
2022-08-10T06:19:48.977Z,0
2022-08-10T06:20:07.359Z,1.12
2022-08-10T06:20:39.544Z,.32
2022-08-10T06:21:11.659Z,.32
2022-08-10T06:21:55.322Z,1.44
2022-08-10T06:22:15.714Z,.64
2022-08-10T06:22:48.074Z,0
2022-08-10T06:23:19.645Z,1.44
2022-08-10T06:23:42.433Z,0
2022-08-10T06:24:04.904Z,0
2022-08-10T06:24:57.132Z,0
2022-08-10T06:26:08.607Z,0
2022-08-10T06:26:17.372Z,0
2022-08-10T06:26:47.667Z,0
2022-08-10T06:27:19.697Z,0
2022-08-10T06:27:45.620Z,0
2022-08-10T06:28:27.189Z,0
2022-08-10T06:29:02.919Z,.32
2022-08-10T06:29:31.016Z,.32
2022-08-10T06:30:20.634Z,0
2022-08-10T06:30:47.695Z,.32
2022-08-10T06:31:19.599Z,0
2022-08-10T06:31:48.290Z,0
2022-08-10T06:32:06.189Z,1.77
2022-08-10T06:32:40.008Z,1.44
2022-08-10T06:33:11.526Z,0
2022-08-10T06:33:43.586Z,0
2022-08-10T06:34:13.641Z,.32
2022-08-10T06:34:48.654Z,0
2022-08-10T06:35:19.847Z,0
2022-08-10T06:35:42.476Z,0
2022-08-10T06:36:05.577Z,0
2022-08-10T06:36:39.764Z,0
2022-08-10T06:37:11.632Z,0
2022-08-10T06:37:43.651Z,0
2022-08-10T06:38:14.667Z,2.57
2022-08-10T06:38:48.153Z,.32
2022-08-10T06:39:42.434Z,0
2022-08-10T06:40:04.729Z,0
2022-08-10T06:40:39.713Z,.32
2022-08-10T06:41:13.828Z,1.44
2022-08-10T06:41:57.740Z,0
2022-08-10T06:42:31.739Z,0
2022-08-10T06:42:56.020Z,.64
2022-08-10T06:43:18.050Z,0
2022-08-10T06:43:40.749Z,0
2022-08-10T06:44:03.925Z,0
2022-08-10T06:44:39.720Z,1.12
2022-08-10T06:45:11.612Z,0
2022-08-10T06:45:43.528Z,0
2022-08-10T06:46:13.770Z,.32
2022-08-10T06:46:49.164Z,.32
2022-08-10T06:47:22.928Z,0
2022-08-10T06:47:42.683Z,0
2022-08-10T06:48:05.007Z,0
2022-08-10T06:48:39.566Z,0
2022-08-10T06:49:11.741Z,0
2022-08-10T06:49:43.540Z,0
2022-08-10T06:50:13.526Z,.32
2022-08-10T06:50:58.160Z,0
2022-08-10T06:51:19.628Z,0
2022-08-10T06:51:45.056Z,.32
2022-08-10T06:52:07.533Z,0
2022-08-10T06:52:39.576Z,0
2022-08-10T06:53:11.659Z,.32
2022-08-10T06:53:53.934Z,0
2022-08-10T06:54:13.743Z,0
2022-08-10T06:54:47.507Z,0
2022-08-10T06:55:19.526Z,0
2022-08-10T06:55:55.200Z,0
2022-08-10T06:56:04.801Z,.64
2022-08-10T06:56:50.864Z,0
2022-08-10T06:57:18.473Z,1.12
2022-08-10T06:57:43.649Z,0
2022-08-10T06:58:13.502Z,0
2022-08-10T06:58:47.503Z,1.44
2022-08-10T06:59:21.762Z,0
2022-08-10T06:59:42.331Z,0
2022-08-10T07:00:04.901Z,0
2022-08-10T07:00:39.730Z,0
2022-08-10T07:01:12.036Z,0
2022-08-10T07:01:43.650Z,1.77
2022-08-10T07:02:13.730Z,1.44
2022-08-10T07:02:47.658Z,.64
2022-08-10T07:03:21.028Z,0
2022-08-10T07:03:42.720Z,0
2022-08-10T07:04:06.478Z,.32
2022-08-10T07:04:39.645Z,0
2022-08-10T07:05:11.584Z,0
2022-08-10T07:05:46.891Z,.32
2022-08-10T07:06:13.563Z,.64
2022-08-10T07:06:47.557Z,1.12
2022-08-10T07:07:19.520Z,0
2022-08-10T07:07:42.327Z,2.09
2022-08-10T07:08:04.707Z,1.12
2022-08-10T07:08:39.714Z,0
2022-08-10T07:09:11.732Z,0
2022-08-10T07:09:43.482Z,0
2022-08-10T07:10:14.116Z,0
2022-08-10T07:10:47.583Z,1.44
2022-08-10T07:11:20.130Z,.32
2022-08-10T07:11:43.173Z,.32
2022-08-10T07:12:08.113Z,0
2022-08-10T07:12:43.141Z,1.12
2022-08-10T07:13:11.603Z,.32
2022-08-10T07:14:17.479Z,0
2022-08-10T07:14:31.905Z,1.12
2022-08-10T07:14:54.228Z,1.12
2022-08-10T07:15:18.876Z,0
2022-08-10T07:15:57.319Z,.32
2022-08-10T07:16:03.573Z,0
2022-08-10T07:16:41.959Z,1.77
2022-08-10T07:17:15.747Z,.32
2022-08-10T07:17:44.309Z,0
2022-08-10T07:18:15.639Z,.32
2022-08-10T07:18:48.305Z,0
2022-08-10T07:19:21.659Z,.32
2022-08-10T07:19:49.524Z,.32
2022-08-10T07:20:07.923Z,0
2022-08-10T07:20:39.622Z,0
2022-08-10T07:21:12.919Z,.32
2022-08-10T07:21:43.790Z,.64
2022-08-10T07:23:08.738Z,1.44
2022-08-10T07:24:08.514Z,3.54
2022-08-10T07:24:40.003Z,1.12
2022-08-10T07:25:17.133Z,1.44
2022-08-10T07:25:38.642Z,0
2022-08-10T07:26:14.949Z,0
2022-08-10T07:26:47.716Z,.32
2022-08-10T07:27:19.670Z,1.44
2022-08-10T07:27:58.962Z,1.44
2022-08-10T07:28:04.703Z,2.09
2022-08-10T07:28:41.445Z,1.44
2022-08-10T07:29:52.794Z,2.89
2022-08-10T07:29:59.528Z,.64
2022-08-10T07:30:31.808Z,2.89
2022-08-10T07:30:54.254Z,2.09
2022-08-10T07:31:54.621Z,.32
2022-08-10T07:32:07.837Z,.32
2022-08-10T07:32:39.582Z,2.09
2022-08-10T07:33:11.603Z,4.02
2022-08-10T07:33:43.568Z,4.02
2022-08-10T07:34:28.604Z,2.89
2022-08-10T07:34:47.594Z,.32
2022-08-10T07:35:19.428Z,2.89
2022-08-10T07:35:43.617Z,2.89
2022-08-10T07:36:04.621Z,2.09
2022-08-10T07:36:39.690Z,1.44
2022-08-10T07:37:11.452Z,3.54
2022-08-10T07:37:43.526Z,2.57
2022-08-10T07:38:13.987Z,.64
2022-08-10T07:38:48.043Z,1.12
2022-08-10T07:40:02.829Z,2.09
2022-08-10T07:40:08.086Z,1.44
2022-08-10T07:40:39.556Z,.64
2022-08-10T07:41:11.605Z,1.12
2022-08-10T07:41:44.499Z,.32
2022-08-10T07:42:15.535Z,0
2022-08-10T07:42:51.028Z,0
2022-08-10T07:43:13.691Z,.32
2022-08-10T07:43:45.266Z,.32
2022-08-10T07:44:24.087Z,4.02
2022-08-10T07:44:46.346Z,6.43
2022-08-10T07:45:09.175Z,4.98
2022-08-10T07:45:48.312Z,3.54
2022-08-10T07:46:16.021Z,4.66